• Join FlightAware (Why Join?)
  • Login
  • US Flag 
10:48PM EDT


 

Airport Tracker/Info


-or-


 

Live Flight TrackerFlight Track Log ✈ DAL6246 ✈ 01-Jul-2013 ✈ KILM - KLGA

Flight Track Log - Related Links

Times and Time Zones

All times are in EDT time to prevent confusion due to time zone crossing. See the DAL6246 flight status page for this flight to view local times or setup timezone preferences in your user account.

Time Position Orientation Groundspeed Altitude Reporting Facility
EDT Latitude Longitude Course Direction KTS MPH feet Rate Location/Type
06:12AM 34.3367 -77.9411 12° North 257 296 4,500  Level Washington Center
06:13AM 34.4203 -77.9333 North 316 364 7,000 2,640 Climbing Washington Center
06:14AM 34.5081 -77.9208 North 322 371 9,800 2,100 Climbing Washington Center
06:15AM 34.6042 -77.9058 North 331 381 11,200 1,680 Climbing Washington Center
06:16AM 34.7111 -77.8911 North 363 418 13,300 1,860 Climbing Washington Center
06:17AM 34.9463 -77.8009 12° North  Level FlightAware Approximate
06:17AM 34.7989 -77.8811 North 382 440 15,000  Level Washington Center
06:18AM 34.9225 -77.8567 North 399 459 16,500 1,440 Climbing Washington Center
06:19AM 35.0436 -77.8397 North 419 482 17,900 1,380 Climbing Washington Center
06:20AM 35.1672 -77.8228 North 432 497 19,300 1,380 Climbing Washington Center
06:21AM 35.2928 -77.8033 North 447 514 20,700 1,380 Climbing Washington Center
06:22AM 35.4203 -77.7839 North 447 514 22,100 1,380 Climbing Washington Center
06:23AM 35.5500 -77.7644 North 453 521 23,500 1,320 Climbing Washington Center
06:24AM 35.6756 -77.7475 North 453 521 24,800 1,140 Climbing Washington Center
06:25AM 35.8053 -77.7306 North 458 527 25,800 1,080 Climbing Washington Center
06:26AM 35.9517 -77.7064 North 477 549 27,000 1,140 Climbing Washington Center
06:27AM 36.0819 -77.6583 17° North 477 549 28,100 960 Climbing Washington Center
06:28AM 36.2158 -77.6386 North 482 555 29,000 4,380 Climbing Washington Center
06:29AM 36.3517 -77.6217 North 482 555 37,000 960 Climbing Washington Center
06:30AM 36.4856 -77.6069 North 482 555 31,000 -2,520 Descending Washington Center
06:31AM 36.6233 -77.5897 North 482 555 32,000 960 Climbing Washington Center
06:32AM 36.7500 -77.5128 26° Northeast 482 555 33,000 960 Climbing Washington Center
06:33AM 36.8681 -77.4247 31° Northeast 482 555 34,000 960 Climbing Washington Center
06:34AM 36.9903 -77.3444 28° Northeast 492 566 35,000 960 Climbing Washington Center
06:35AM 37.1019 -77.2689 28° Northeast 497 572 36,000 960 Climbing Washington Center
06:36AM 37.2197 -77.1933 27° Northeast 489 563 37,000 480 Climbing Washington Center
06:37AM 37.3442 -77.1044 30° Northeast 494 568 37,000  Level Washington Center
06:38AM 37.4767 -77.0022 31° Northeast 504 580 37,000  Level Washington Center
06:39AM 37.6047 -76.9261 25° Northeast 509 586 37,000  Level Washington Center
06:40AM 37.7347 -76.8628 21° North 496 571 37,000  Level Washington Center
06:41AM 37.8647 -76.7992 21° North 496 571 37,000  Level Washington Center
06:42AM 37.9967 -76.7406 19° North 496 571 37,000  Level Washington Center
06:43AM 38.1267 -76.6819 20° North 496 571 37,000  Level Washington Center
06:44AM 38.2583 -76.6203 20° North 496 571 37,000  Level Washington Center
06:45AM 38.3633 -76.5344 33° Northeast 493 567 37,000 -120 Level Washington Center
06:46AM 38.4622 -76.4083 45° Northeast 488 562 36,800 -1,200 Descending Washington Center
06:47AM 38.5633 -76.2794 45° Northeast 500 575 34,700 -2,280 Descending Washington Center
06:48AM 38.6681 -76.1447 45° Northeast 514 592 32,300 -2,340 Descending Washington Center
06:49AM 38.7708 -76.0122 45° Northeast 514 592 30,100 -2,220 Descending Washington Center
06:50AM 38.8714 -75.8822 45° Northeast 514 592 27,900 -1,620 Descending Washington Center
06:51AM 38.9717 -75.7678 42° Northeast 504 580 26,900 -540 Descending Washington Center
06:52AM 39.0781 -75.6639 37° Northeast 484 557 26,900 -540 Level Washington Center
06:53AM 39.1842 -75.5647 36° Northeast 474 545 25,900 -1,020 Descending Washington Center
06:54AM 39.2883 -75.4683 36° Northeast 468 539 24,900 -1,080 Descending Washington Center
06:55AM 39.3903 -75.3767 35° Northeast 456 525 23,800 -1,380 Descending Washington Center
06:56AM 39.4964 -75.2822 34° Northeast 451 519 22,200 -1,740 Descending Washington Center
06:57AM 39.5961 -75.1903 35° Northeast 444 511 20,300 -1,920 Descending Washington Center
06:58AM 39.6958 -75.1008 35° Northeast 444 511 18,400 -1,980 Descending Washington Center
06:59AM 39.8017 -75.0081 34° Northeast 433 498 16,400 -1,800 Descending Washington Center
07:00AM 39.8867 -74.9317 35° Northeast 414 476 14,800 -1,800 Descending Washington Center
07:01AM 39.9667 -74.8500 38° Northeast 401 461 13,300 -1,860 Descending New York TRACON
07:02AM 40.0333 -74.7333 53° Northeast 393 452 11,600 -1,680 Descending New York TRACON
07:03AM 40.1000 -74.6333 49° Northeast 379 436 10,000 -840 Descending New York TRACON
07:04AM 40.1667 -74.5333 49° Northeast 375 432 10,000  Level New York TRACON
07:05AM 40.2333 -74.4500 44° Northeast 378 435 10,000  Level New York TRACON
07:06AM 40.3167 -74.3500 42° Northeast 377 434 10,000 -60 Level New York TRACON
07:07AM 40.3833 -74.2667 44° Northeast 345 397 9,900 -900 Descending New York TRACON
07:08AM 40.4500 -74.1833 44° Northeast 309 356 8,400 -1,500 Descending New York TRACON
07:08AM 40.5000 -74.1167 45° Northeast 305 351 7,100 -1,500 Descending New York TRACON
07:09AM 40.5667 -74.0500 37° Northeast 307 353 5,600 -1,560 Descending New York TRACON
07:10AM 40.6333 -74.0333 11° North 297 342 4,200 -840 Descending New York TRACON
07:11AM 40.7167 -74.0167 North 287 330 4,000 -120 Descending New York TRACON
07:12AM 40.7833 -73.9833 21° North 288 331 4,000 -300 Level New York TRACON
07:13AM 40.8500 -73.9333 30° Northeast 281 323 3,500 -1,020 Descending New York TRACON
07:14AM 40.9333 -73.8833 24° Northeast 281 323 2,000 -840 Descending New York TRACON
07:15AM 40.9167 -73.8167 108° East 218 251 2,000  Level New York TRACON
07:16AM 40.8833 -73.7833 143° Southeast 186 214 2,000 -300 Level New York TRACON
07:17AM 40.8500 -73.8167 217° Southwest 139 160 1,400 -660 Descending New York TRACON
07:18AM 40.8167 -73.8500 217° Southwest 128 147 800 -720 Descending New York TRACON